Time;durP1;ratioP1;P1;durP2;ratioP2;P2;SDS_P1;SDS_P2;PMS_P1;PMS_P2;Temp;Humidity;BMP_temperature;BMP_pressure;BME280_temperature;BME280_humidity;BME280_pressure;Samples;Min_cycle;Max_cycle;Signal;HPM_P1;HPM_P2
2022/01/31 00:00:09;;;;;;;20.07;3.60;;;1.60;99.90;;;;;;5095422;28;20195;-81
2022/01/31 00:02:36;;;;;;;16.57;3.87;;;1.60;1.00;;;;;;5095397;28;20187;-81
2022/01/31 00:05:04;;;;;;;14.10;3.30;;;1.60;1.00;;;;;;5095106;28;21084;-81
2022/01/31 00:07:31;;;;;;;19.90;3.97;;;1.50;99.90;;;;;;5095192;28;20264;-82
2022/01/31 00:09:58;;;;;;;22.30;3.80;;;1.50;1.00;;;;;;5095126;28;20248;-82
2022/01/31 00:12:30;;;;;;;18.17;3.17;;;1.50;1.00;;;;;;5095352;28;20183;-82
2022/01/31 00:15:02;;;;;;;15.80;3.77;;;1.50;1.00;;;;;;5094922;28;20186;-82
2022/01/31 00:17:29;;;;;;;17.13;3.40;;;1.50;1.00;;;;;;5094799;28;20641;-82
2022/01/31 00:19:56;;;;;;;21.17;3.93;;;1.50;1.00;;;;;;5094687;28;20597;-82
2022/01/31 00:22:23;;;;;;;21.13;3.63;;;1.50;1.00;;;;;;5094816;28;20710;-82
2022/01/31 00:24:50;;;;;;;21.13;3.87;;;1.50;1.00;;;;;;5094647;28;20542;-82
2022/01/31 00:27:17;;;;;;;14.40;3.50;;;1.50;1.00;;;;;;5094355;28;20211;-82
2022/01/31 00:29:44;;;;;;;14.90;3.10;;;1.40;1.00;;;;;;5094663;28;20593;-82
2022/01/31 00:32:12;;;;;;;14.20;2.87;;;1.50;1.00;;;;;;5094810;28;20195;-82
2022/01/31 00:34:39;;;;;;;19.83;3.13;;;1.40;1.00;;;;;;5094284;28;20331;-82
2022/01/31 00:37:07;;;;;;;19.67;3.50;;;1.50;1.00;;;;;;5094036;28;20201;-82
2022/01/31 00:39:36;;;;;;;27.77;4.27;;;1.40;1.00;;;;;;5094919;28;20551;-82
2022/01/31 00:42:05;;;;;;;18.83;3.83;;;1.40;1.00;;;;;;5094564;28;20278;-82
2022/01/31 00:44:40;;;;;;;16.07;3.40;;;1.40;1.00;;;;;;5094464;28;20272;-81
2022/01/31 00:47:17;;;;;;;14.47;3.67;;;1.40;1.00;;;;;;5094731;28;20261;-83
2022/01/31 00:49:50;;;;;;;14.03;3.10;;;1.40;1.00;;;;;;5094382;28;20224;-82
2022/01/31 00:52:18;;;;;;;16.90;3.10;;;1.40;1.00;;;;;;5094580;28;20191;-82
2022/01/31 00:54:45;;;;;;;14.87;3.13;;;1.50;1.00;;;;;;5094784;28;20199;-82
2022/01/31 00:57:12;;;;;;;20.37;3.27;;;1.40;1.00;;;;;;5094629;28;20191;-81
2022/01/31 00:59:39;;;;;;;20.97;3.73;;;1.40;1.00;;;;;;5094018;28;20191;-83
2022/01/31 01:02:06;;;;;;;13.27;3.10;;;1.40;1.00;;;;;;5093922;28;20670;-82
2022/01/31 01:04:33;;;;;;;17.10;3.30;;;1.40;1.00;;;;;;5094026;28;20191;-82
2022/01/31 01:07:02;;;;;;;19.07;3.13;;;1.40;1.00;;;;;;5093899;28;20625;-82
2022/01/31 01:09:29;;;;;;;18.40;3.43;;;1.40;1.00;;;;;;5094092;28;20187;-82
2022/01/31 01:11:56;;;;;;;14.40;2.90;;;1.40;1.00;;;;;;5094071;28;20191;-82
2022/01/31 01:14:22;;;;;;;16.57;3.00;;;1.40;1.00;;;;;;5093953;28;20187;-82
2022/01/31 01:16:49;;;;;;;17.17;4.03;;;1.40;1.00;;;;;;5093897;28;20209;-82
2022/01/31 01:19:16;;;;;;;19.17;3.30;;;1.40;1.00;;;;;;5094347;28;20195;-81
2022/01/31 01:21:43;;;;;;;13.63;3.33;;;1.40;1.00;;;;;;5094009;28;20311;-82
2022/01/31 01:24:12;;;;;;;17.23;3.40;;;1.40;1.00;;;;;;5093708;28;20260;-82
2022/01/31 01:26:39;;;;;;;13.07;2.80;;;1.40;1.00;;;;;;5093758;28;20215;-82
2022/01/31 01:29:06;;;;;;;22.13;3.27;;;1.40;1.00;;;;;;5093488;28;20195;-82
2022/01/31 01:31:33;;;;;;;13.37;2.97;;;1.40;1.00;;;;;;5093271;28;20191;-82
2022/01/31 01:34:00;;;;;;;16.90;3.50;;;1.40;1.00;;;;;;5093758;28;20244;-82
2022/01/31 01:36:27;;;;;;;19.70;2.60;;;1.50;1.00;;;;;;5093300;28;20244;-82
2022/01/31 01:38:54;;;;;;;12.77;2.47;;;1.50;1.00;;;;;;5093569;28;20191;-82
2022/01/31 01:41:22;;;;;;;15.30;3.10;;;1.50;1.00;;;;;;5092494;28;20237;-83
2022/01/31 01:43:49;;;;;;;18.57;3.53;;;1.50;1.00;;;;;;5093355;28;20235;-82
2022/01/31 01:46:16;;;;;;;17.87;3.43;;;1.50;1.00;;;;;;5093550;28;20191;-82
2022/01/31 01:48:43;;;;;;;17.07;2.97;;;1.60;1.00;;;;;;5093178;28;20268;-81
2022/01/31 01:51:10;;;;;;;17.77;3.00;;;1.60;1.00;;;;;;5093042;28;20203;-82
2022/01/31 01:53:37;;;;;;;18.20;3.10;;;1.60;1.00;;;;;;5093334;28;20195;-82
2022/01/31 01:56:04;;;;;;;13.93;3.20;;;1.60;1.00;;;;;;5092754;28;20252;-82
2022/01/31 01:58:39;;;;;;;18.17;3.43;;;1.60;1.00;;;;;;5093293;28;20199;-82
2022/01/31 02:01:07;;;;;;;12.80;3.57;;;1.60;1.00;;;;;;5092790;28;20189;-82
2022/01/31 02:03:36;;;;;;;19.13;3.87;;;1.60;1.00;;;;;;5092522;28;20257;-82
2022/01/31 02:06:05;;;;;;;15.33;3.17;;;1.70;1.00;;;;;;5092937;28;20252;-83
2022/01/31 02:08:39;;;;;;;14.43;3.30;;;1.70;99.90;;;;;;5092877;28;20268;-82
2022/01/31 02:11:06;;;;;;;14.53;3.33;;;1.70;99.90;;;;;;5093341;28;20183;-82
2022/01/31 02:13:36;;;;;;;12.77;2.83;;;1.70;99.90;;;;;;5093020;28;20192;-81
2022/01/31 02:16:04;;;;;;;15.43;3.50;;;1.70;99.90;;;;;;5093140;28;20234;-82
2022/01/31 02:18:31;;;;;;;16.23;2.40;;;1.70;99.90;;;;;;5092445;28;20199;-82
2022/01/31 02:20:59;;;;;;;16.40;3.53;;;1.70;99.90;;;;;;5092827;28;20191;-82
2022/01/31 02:23:28;;;;;;;12.83;4.10;;;1.70;99.90;;;;;;5092446;28;20619;-81
2022/01/31 02:25:57;;;;;;;17.90;4.17;;;1.70;99.90;;;;;;5092739;28;20191;-83
2022/01/31 02:28:27;;;;;;;18.10;2.93;;;1.70;99.90;;;;;;5092579;28;20660;-81
2022/01/31 02:30:54;;;;;;;17.97;3.23;;;1.80;99.90;;;;;;5092823;28;20248;-81
2022/01/31 02:33:22;;;;;;;12.90;3.53;;;1.70;99.90;;;;;;5092672;28;20188;-82
2022/01/31 02:35:50;;;;;;;12.50;3.30;;;1.70;99.90;;;;;;5093060;28;20256;-82
2022/01/31 02:38:18;;;;;;;15.73;3.10;;;1.70;99.90;;;;;;5092856;28;20196;-82
2022/01/31 02:40:46;;;;;;;11.70;3.53;;;1.70;99.90;;;;;;5092518;28;20191;-81
2022/01/31 02:43:13;;;;;;;13.43;3.17;;;1.70;99.90;;;;;;5092493;28;20622;-81
2022/01/31 02:45:40;;;;;;;14.97;4.00;;;1.60;99.90;;;;;;5092201;28;20238;-82
2022/01/31 02:48:07;;;;;;;15.00;3.33;;;1.60;99.90;;;;;;5092254;28;20218;-81
2022/01/31 02:50:34;;;;;;;18.03;4.03;;;1.60;99.90;;;;;;5092173;28;20202;-82
2022/01/31 02:53:11;;;;;;;16.37;2.93;;;1.60;99.90;;;;;;5091899;28;20187;-81
2022/01/31 02:55:42;;;;;;;17.57;3.40;;;1.50;99.90;;;;;;5092539;28;20604;-82
2022/01/31 02:58:09;;;;;;;12.73;2.80;;;1.50;99.90;;;;;;5092310;28;20176;-82
2022/01/31 03:00:37;;;;;;;15.57;3.10;;;1.50;99.90;;;;;;5084537;28;20241;-82
2022/01/31 03:03:05;;;;;;;14.73;3.63;;;1.40;99.90;;;;;;5092030;28;20719;-82
2022/01/31 03:05:32;;;;;;;16.20;3.10;;;1.50;99.90;;;;;;5092247;28;20191;-82
2022/01/31 03:07:59;;;;;;;12.60;3.30;;;1.50;99.90;;;;;;5092033;28;20215;-82
2022/01/31 03:10:27;;;;;;;18.30;4.60;;;1.40;99.90;;;;;;5092480;28;20195;-81
2022/01/31 03:12:55;;;;;;;20.80;5.30;;;1.40;99.90;;;;;;5092304;28;20195;-81
2022/01/31 03:15:22;;;;;;;16.23;3.27;;;1.40;99.90;;;;;;5092966;28;20652;-82
2022/01/31 03:17:50;;;;;;;14.17;3.10;;;1.40;99.90;;;;;;5096434;28;20192;-80
2022/01/31 03:20:20;;;;;;;21.87;3.37;;;1.40;99.90;;;;;;5095566;28;20183;-81
2022/01/31 03:22:47;;;;;;;13.60;3.40;;;1.40;99.90;;;;;;5095942;28;20644;-82
2022/01/31 03:25:15;;;;;;;9.80;3.80;;;1.30;99.90;;;;;;5095881;28;20279;-81
2022/01/31 03:27:43;;;;;;;13.90;3.70;;;1.30;99.90;;;;;;5096190;28;20745;-81
2022/01/31 03:30:15;;;;;;;17.43;3.93;;;1.30;99.90;;;;;;5095686;28;20733;-81
2022/01/31 03:32:42;;;;;;;26.47;3.57;;;1.30;99.90;;;;;;5096274;28;20175;-82
2022/01/31 03:35:10;;;;;;;15.47;3.10;;;1.30;99.90;;;;;;5096166;28;20245;-81
2022/01/31 03:37:37;;;;;;;16.43;5.20;;;1.30;99.90;;;;;;5095647;28;20737;-81
2022/01/31 03:40:06;;;;;;;15.30;4.17;;;1.30;99.90;;;;;;5095776;28;20532;-81
2022/01/31 03:42:34;;;;;;;15.77;2.83;;;1.30;99.90;;;;;;5095603;28;20629;-82
2022/01/31 03:45:01;;;;;;;13.50;3.53;;;1.30;99.90;;;;;;5095372;28;20183;-81
2022/01/31 03:47:29;;;;;;;24.60;6.27;;;1.30;99.90;;;;;;5095971;28;20268;-81
2022/01/31 03:49:56;;;;;;;31.97;9.07;;;1.20;99.90;;;;;;5095350;28;20206;-82
2022/01/31 03:52:23;;;;;;;27.07;7.97;;;1.20;99.90;;;;;;5095352;28;20645;-82
2022/01/31 03:54:50;;;;;;;19.43;5.07;;;1.20;99.90;;;;;;5095405;28;20187;-81
2022/01/31 03:57:17;;;;;;;18.37;4.50;;;1.20;99.90;;;;;;5095760;28;20188;-81
2022/01/31 03:59:44;;;;;;;18.57;4.37;;;1.20;99.90;;;;;;5095305;28;20187;-81
2022/01/31 04:02:11;;;;;;;11.53;3.43;;;1.20;1.00;;;;;;5095365;28;20595;-81
2022/01/31 04:04:39;;;;;;;20.07;3.73;;;1.20;1.00;;;;;;5094863;28;20195;-81
2022/01/31 04:07:06;;;;;;;19.77;4.00;;;1.20;1.00;;;;;;5095071;28;20601;-82
2022/01/31 04:09:33;;;;;;;15.67;4.17;;;1.20;1.00;;;;;;5095125;28;20223;-82
2022/01/31 04:12:00;;;;;;;14.57;6.07;;;1.20;1.00;;;;;;5095047;28;20593;-81
2022/01/31 04:14:27;;;;;;;15.10;3.90;;;1.30;1.00;;;;;;5095379;28;20191;-81
2022/01/31 04:16:56;;;;;;;15.63;3.77;;;1.30;1.00;;;;;;5095191;28;20193;-81
2022/01/31 04:19:23;;;;;;;22.43;5.27;;;1.30;1.00;;;;;;5095369;28;20195;-82
2022/01/31 04:21:52;;;;;;;20.37;4.97;;;1.30;1.00;;;;;;5094549;28;20195;-81
2022/01/31 04:24:23;;;;;;;14.97;5.50;;;1.40;1.00;;;;;;5095381;28;20248;-81
2022/01/31 04:26:59;;;;;;;20.47;5.33;;;1.40;1.00;;;;;;5094532;28;20183;-81
2022/01/31 04:29:29;;;;;;;17.37;5.33;;;1.40;1.00;;;;;;5094941;28;20225;-81
2022/01/31 04:31:56;;;;;;;16.13;4.83;;;1.40;1.00;;;;;;5095240;28;20188;-81
2022/01/31 04:34:23;;;;;;;15.57;4.87;;;1.40;1.00;;;;;;5094876;28;20240;-81
2022/01/31 04:36:52;;;;;;;19.63;5.60;;;1.50;1.00;;;;;;5095056;28;20248;-82
2022/01/31 04:39:19;;;;;;;13.47;3.70;;;1.50;1.00;;;;;;5095207;28;20660;-81
2022/01/31 04:41:49;;;;;;;16.40;4.87;;;1.50;1.00;;;;;;5095091;28;20195;-81
2022/01/31 04:44:16;;;;;;;17.77;4.57;;;1.50;1.00;;;;;;5095119;28;20228;-81
2022/01/31 04:46:45;;;;;;;17.70;3.63;;;1.50;1.00;;;;;;5094327;28;20202;-81
2022/01/31 04:49:12;;;;;;;12.83;3.67;;;1.50;1.00;;;;;;5094234;28;20219;-82
2022/01/31 04:51:39;;;;;;;10.63;3.53;;;1.60;1.00;;;;;;5093448;28;20195;-81
2022/01/31 04:54:07;;;;;;;16.97;2.90;;;1.60;1.00;;;;;;5094255;28;20240;-82
2022/01/31 04:56:36;;;;;;;14.27;3.50;;;1.60;1.00;;;;;;5094379;28;20249;-81
2022/01/31 04:59:03;;;;;;;16.30;3.17;;;1.60;1.00;;;;;;5094571;28;20285;-80
2022/01/31 05:01:31;;;;;;;21.73;4.53;;;1.60;1.00;;;;;;5093995;28;20598;-81
2022/01/31 05:03:58;;;;;;;17.50;4.40;;;1.60;1.00;;;;;;5094260;28;20191;-81
2022/01/31 05:06:31;;;;;;;15.67;3.43;;;1.60;1.00;;;;;;5094447;28;20187;-82
2022/01/31 05:08:58;;;;;;;23.73;5.90;;;1.60;1.00;;;;;;5094395;28;20211;-81
2022/01/31 05:11:27;;;;;;;18.83;5.17;;;1.70;1.00;;;;;;5094222;28;20602;-82
2022/01/31 05:13:54;;;;;;;25.40;6.00;;;1.70;1.00;;;;;;5084727;28;20190;-82
2022/01/31 05:16:23;;;;;;;18.90;6.17;;;1.70;1.00;;;;;;5073482;28;20661;-81
2022/01/31 05:18:50;;;;;;;24.80;5.67;;;1.70;1.00;;;;;;5073676;28;20324;-81
2022/01/31 05:21:17;;;;;;;23.33;6.13;;;1.70;1.00;;;;;;5091570;28;20220;-81
2022/01/31 05:23:44;;;;;;;20.63;5.23;;;1.70;1.00;;;;;;5087776;28;20188;-81
2022/01/31 05:26:11;;;;;;;19.50;5.83;;;1.80;1.00;;;;;;5073604;28;20274;-81
2022/01/31 05:28:42;;;;;;;19.80;5.00;;;1.80;1.00;;;;;;5082445;28;20280;-81
2022/01/31 05:31:09;;;;;;;19.30;6.57;;;1.80;1.00;;;;;;5093523;28;20203;-81
2022/01/31 05:33:36;;;;;;;27.37;7.00;;;1.80;1.00;;;;;;5093743;28;20191;-81
2022/01/31 05:36:04;;;;;;;23.73;6.20;;;1.80;1.00;;;;;;5094070;28;20195;-81
2022/01/31 05:38:34;;;;;;;21.50;6.83;;;1.80;1.00;;;;;;5093238;28;20232;-82
2022/01/31 05:41:04;;;;;;;23.03;7.17;;;1.80;1.00;;;;;;5093487;28;20312;-81
2022/01/31 05:43:31;;;;;;;23.57;7.63;;;1.80;1.00;;;;;;5093641;28;20310;-82
2022/01/31 05:46:00;;;;;;;22.47;6.43;;;1.90;1.00;;;;;;5093155;28;20249;-83
2022/01/31 05:48:27;;;;;;;22.07;6.40;;;1.90;1.00;;;;;;5093634;28;20285;-81
2022/01/31 05:50:54;;;;;;;17.57;6.47;;;1.80;1.00;;;;;;5092917;28;20187;-82
2022/01/31 05:53:22;;;;;;;30.40;8.33;;;1.90;1.00;;;;;;5093284;28;20241;-81
2022/01/31 05:55:49;;;;;;;22.97;6.87;;;1.80;1.00;;;;;;5093314;28;20280;-81
2022/01/31 05:58:16;;;;;;;16.10;5.20;;;1.90;1.00;;;;;;5089087;28;20199;-81
2022/01/31 06:00:44;;;;;;;21.63;5.20;;;1.90;1.00;;;;;;5080018;28;20710;-81
2022/01/31 06:03:12;;;;;;;16.33;4.00;;;1.90;1.00;;;;;;5092823;28;20649;-81
2022/01/31 06:05:39;;;;;;;15.57;4.10;;;1.90;1.00;;;;;;5092205;28;20564;-81
2022/01/31 06:08:06;;;;;;;17.20;4.03;;;1.90;1.00;;;;;;5072703;28;20195;-81
2022/01/31 06:10:40;;;;;;;21.47;4.53;;;1.90;1.00;;;;;;5072821;28;20638;-83
2022/01/31 06:13:07;;;;;;;15.77;5.00;;;1.90;1.00;;;;;;5080449;28;20188;-81
2022/01/31 06:15:34;;;;;;;16.97;5.30;;;1.90;1.00;;;;;;5070851;28;20199;-81
2022/01/31 06:18:01;;;;;;;18.00;4.67;;;1.90;1.00;;;;;;5070779;28;20188;-82
2022/01/31 06:20:30;;;;;;;20.73;4.50;;;1.90;1.00;;;;;;5073400;28;20254;-82
2022/01/31 06:22:57;;;;;;;19.50;4.43;;;1.90;1.00;;;;;;5072317;28;20196;-82
2022/01/31 06:25:24;;;;;;;19.03;6.50;;;1.90;1.00;;;;;;5071662;28;20787;-83
2022/01/31 06:27:52;;;;;;;14.40;3.27;;;1.90;1.00;;;;;;5081885;28;20248;-83
2022/01/31 06:30:19;;;;;;;16.43;4.07;;;1.90;1.00;;;;;;5092452;28;20220;-83
2022/01/31 06:32:47;;;;;;;18.63;5.00;;;1.80;1.00;;;;;;5079798;28;20191;-83
2022/01/31 06:35:15;;;;;;;17.20;4.60;;;1.90;1.00;;;;;;5084765;28;20195;-83
2022/01/31 06:37:44;;;;;;;24.83;7.10;;;1.90;1.00;;;;;;5071637;28;20250;-83
2022/01/31 06:40:11;;;;;;;18.13;5.90;;;1.90;1.00;;;;;;5072400;28;20251;-83
2022/01/31 06:42:38;;;;;;;22.67;5.43;;;1.90;1.00;;;;;;5071897;28;20673;-83
2022/01/31 06:45:06;;;;;;;20.87;6.33;;;1.90;1.00;;;;;;5077106;28;20585;-83
2022/01/31 06:47:33;;;;;;;21.83;7.00;;;1.90;1.00;;;;;;5091969;28;20187;-83
2022/01/31 06:50:00;;;;;;;21.83;6.10;;;1.90;1.00;;;;;;5093567;28;20288;-84
2022/01/31 06:52:31;;;;;;;21.90;5.70;;;1.90;1.00;;;;;;5096884;28;20260;-83
2022/01/31 06:55:03;;;;;;;24.07;6.03;;;2.00;1.00;;;;;;5096837;28;20686;-84
2022/01/31 06:57:33;;;;;;;21.93;6.67;;;2.00;1.00;;;;;;5096315;28;20514;-83
2022/01/31 07:00:00;;;;;;;25.17;6.73;;;2.00;1.00;;;;;;5096713;28;20248;-83
2022/01/31 07:02:28;;;;;;;23.73;9.07;;;2.00;1.00;;;;;;5096695;28;20195;-83
2022/01/31 07:04:55;;;;;;;23.23;7.87;;;2.00;1.00;;;;;;5096495;28;20225;-83
2022/01/31 07:07:22;;;;;;;24.00;9.77;;;2.00;28.80;;;;;;5096243;28;20552;-83
2022/01/31 07:09:49;;;;;;;26.13;9.57;;;2.00;69.40;;;;;;5096572;28;20217;-83
2022/01/31 07:12:18;;;;;;;22.27;7.00;;;2.00;91.70;;;;;;5076706;28;20192;-83
2022/01/31 07:14:45;;;;;;;24.93;8.00;;;2.00;99.90;;;;;;5075641;28;20223;-83
2022/01/31 07:17:12;;;;;;;20.97;6.63;;;2.00;99.90;;;;;;5075714;28;20208;-82
2022/01/31 07:19:40;;;;;;;21.53;6.10;;;2.10;99.90;;;;;;5077912;28;20195;-81
2022/01/31 07:22:11;;;;;;;21.23;6.23;;;2.00;99.90;;;;;;5092574;28;20195;-86
2022/01/31 07:24:48;;;;;;;19.57;5.60;;;2.10;99.90;;;;;;5093704;28;20199;-85
2022/01/31 07:27:15;;;;;;;26.37;5.70;;;2.00;99.90;;;;;;5091477;28;20589;-85
2022/01/31 07:29:45;;;;;;;18.60;5.57;;;2.10;99.90;;;;;;5083756;28;20238;-87
2022/01/31 07:32:16;;;;;;;26.67;6.40;;;2.10;99.90;;;;;;5092381;28;20667;-85
2022/01/31 07:34:46;;;;;;;23.43;8.30;;;2.10;99.90;;;;;;5101180;28;20191;-86
2022/01/31 07:37:19;;;;;;;19.63;5.67;;;2.10;99.90;;;;;;5093932;28;20198;-90
2022/01/31 07:39:46;;;;;;;27.60;6.73;;;2.20;99.90;;;;;;5100853;28;20237;-86
2022/01/31 07:42:13;;;;;;;19.53;5.60;;;2.20;99.90;;;;;;5103491;28;20637;-88
2022/01/31 07:47:45;;;;;;;21.63;6.03;;;2.30;99.90;;;;;;5103732;28;20663;-90
2022/01/31 07:50:15;;;;;;;21.10;6.80;;;2.20;99.90;;;;;;5103710;28;20265;-89
2022/01/31 07:52:55;;;;;;;18.77;5.83;;;2.30;99.90;;;;;;5084342;28;20202;-89
2022/01/31 07:55:29;;;;;;;25.17;6.37;;;2.30;99.90;;;;;;5103835;28;20227;-89
2022/01/31 07:57:59;;;;;;;19.23;6.23;;;2.30;99.90;;;;;;5090064;28;20219;-90
2022/01/31 08:00:46;;;;;;;22.90;6.80;;;2.30;99.90;;;;;;5103588;28;20188;-90
2022/01/31 08:03:13;;;;;;;22.23;6.10;;;2.30;1.00;;;;;;5101307;28;20268;-85
2022/01/31 08:05:46;;;;;;;24.23;6.17;;;2.30;1.00;;;;;;5090326;28;20191;-90
2022/01/31 08:08:28;;;;;;;17.43;5.80;;;2.30;1.00;;;;;;5103698;28;20187;-87
2022/01/31 08:11:03;;;;;;;21.87;6.37;;;2.30;1.00;;;;;;5105188;28;20180;-88
2022/01/31 08:13:39;;;;;;;18.53;5.30;;;2.40;1.00;;;;;;5101735;28;20236;-90
2022/01/31 08:16:12;;;;;;;21.57;5.60;;;2.40;1.00;;;;;;5092835;28;20191;-90
2022/01/31 08:22:51;;;;;;;23.43;7.83;;;2.40;1.00;;;;;;5083296;28;20233;-92
2022/01/31 08:25:27;;;;;;;21.27;5.40;;;2.40;1.00;;;;;;5082943;28;20204;-90
2022/01/31 08:28:01;;;;;;;20.50;4.87;;;2.40;1.00;;;;;;5078444;28;20184;-88
2022/01/31 08:30:37;;;;;;;17.30;4.70;;;2.50;1.00;;;;;;5082981;28;20206;-88
2022/01/31 08:33:14;;;;;;;21.87;4.83;;;2.50;1.00;;;;;;5081851;28;20176;-89
2022/01/31 08:35:51;;;;;;;20.97;5.17;;;2.50;1.00;;;;;;5103574;28;20191;-87
2022/01/31 08:38:23;;;;;;;22.53;4.57;;;2.50;1.00;;;;;;5080078;28;20611;-90
2022/01/31 08:40:50;;;;;;;23.67;5.27;;;2.60;1.00;;;;;;5085816;28;20204;-86
2022/01/31 08:43:24;;;;;;;21.53;5.73;;;2.60;1.00;;;;;;5082563;28;20231;-89
2022/01/31 08:45:55;;;;;;;20.53;4.80;;;2.60;1.00;;;;;;5082576;28;20184;-87
2022/01/31 08:48:28;;;;;;;30.10;5.97;;;2.70;1.00;;;;;;5083092;28;20231;-90
2022/01/31 08:50:56;;;;;;;27.37;8.97;;;2.60;1.00;;;;;;5083208;28;20227;-87
2022/01/31 08:53:23;;;;;;;26.37;7.57;;;2.70;1.00;;;;;;5083635;28;20198;-87
2022/01/31 08:55:53;;;;;;;21.73;5.77;;;2.70;1.00;;;;;;5084652;28;20187;-85
2022/01/31 08:58:21;;;;;;;28.47;7.30;;;2.80;1.00;;;;;;5101494;28;20191;-85
2022/01/31 09:00:51;;;;;;;27.33;9.17;;;2.80;1.00;;;;;;5104048;28;20706;-84
2022/01/31 09:03:33;;;;;;;23.33;7.60;;;2.80;1.00;;;;;;5092148;28;20200;-84
2022/01/31 09:06:03;;;;;;;24.27;8.23;;;2.90;1.00;;;;;;5083337;28;20278;-87
2022/01/31 09:08:36;;;;;;;34.90;11.03;;;2.90;1.00;;;;;;5101983;28;20241;-85
2022/01/31 09:11:03;;;;;;;37.20;13.57;;;3.00;1.00;;;;;;5103431;28;20205;-85
2022/01/31 09:13:30;;;;;;;44.63;16.53;;;3.00;1.00;;;;;;5101170;28;20191;-87
2022/01/31 09:15:58;;;;;;;49.40;18.87;;;3.00;1.00;;;;;;5089004;28;20192;-86
2022/01/31 09:18:30;;;;;;;51.13;17.80;;;3.10;1.00;;;;;;5082928;28;20194;-86
2022/01/31 09:20:59;;;;;;;69.03;27.00;;;3.10;1.00;;;;;;5092398;28;20189;-86
2022/01/31 09:23:37;;;;;;;45.37;15.17;;;3.20;1.00;;;;;;5096798;28;20187;-84
2022/01/31 09:26:12;;;;;;;24.77;6.87;;;3.20;1.00;;;;;;5101876;28;20205;-85
2022/01/31 09:28:45;;;;;;;58.07;19.17;;;3.20;1.00;;;;;;5103954;28;20198;-87
2022/01/31 09:31:14;;;;;;;62.27;19.87;;;3.20;1.00;;;;;;5104190;28;20226;-85
2022/01/31 09:33:41;;;;;;;53.83;16.00;;;3.30;1.00;;;;;;5102254;28;20204;-87
2022/01/31 09:36:14;;;;;;;40.37;11.07;;;3.30;1.00;;;;;;5095090;28;20209;-86
2022/01/31 09:38:43;;;;;;;32.27;10.23;;;3.40;1.00;;;;;;5095184;28;20210;-84
2022/01/31 09:41:20;;;;;;;34.13;9.47;;;3.40;1.00;;;;;;5100934;28;20661;-89
2022/01/31 09:44:10;;;;;;;40.60;13.83;;;3.40;1.00;;;;;;5101961;28;20226;-85
2022/01/31 09:49:23;;;;;;;33.57;14.73;;;3.50;1.00;;;;;;5100872;28;20202;-84
2022/01/31 09:51:51;;;;;;;27.97;9.47;;;3.50;1.00;;;;;;5093280;28;20197;-86
2022/01/31 09:54:24;;;;;;;41.17;12.83;;;3.50;1.00;;;;;;5087709;28;20660;-87
2022/01/31 09:56:57;;;;;;;47.03;18.10;;;3.60;1.00;;;;;;5081162;28;20183;-85
2022/01/31 09:59:24;;;;;;;24.67;6.10;;;3.50;1.00;;;;;;5083102;28;20255;-86
2022/01/31 10:01:55;;;;;;;30.73;6.13;;;3.50;1.00;;;;;;5102426;28;20240;-89
2022/01/31 10:04:35;;;;;;;23.43;6.27;;;3.50;1.00;;;;;;5102903;28;20194;-86
2022/01/31 10:07:05;;;;;;;35.23;11.93;;;3.40;1.00;;;;;;5101334;28;20273;-85
2022/01/31 10:09:36;;;;;;;38.33;10.47;;;3.40;1.00;;;;;;5104556;28;20280;-90
2022/01/31 10:12:07;;;;;;;24.63;6.70;;;3.40;1.00;;;;;;5102430;28;20191;-87
2022/01/31 10:17:25;;;;;;;32.40;7.97;;;3.40;1.00;;;;;;5082421;28;20237;-86
2022/01/31 10:19:55;;;;;;;30.83;12.60;;;3.40;1.00;;;;;;5081457;28;20199;-87
2022/01/31 10:22:23;;;;;;;48.20;21.00;;;3.50;1.00;;;;;;5081490;28;20238;-84
2022/01/31 10:27:36;;;;;;;46.17;19.80;;;3.50;1.00;;;;;;5078265;28;20182;-89
2022/01/31 10:30:15;;;;;;;39.47;16.13;;;3.60;1.00;;;;;;5083435;28;20212;-89
2022/01/31 10:32:45;;;;;;;29.77;8.80;;;3.60;1.00;;;;;;5084900;28;20191;-91
2022/01/31 10:35:39;;;;;;;25.13;8.67;;;3.60;1.00;;;;;;5081635;28;20624;-94
2022/01/31 10:38:31;;;;;;;34.57;10.43;;;3.60;1.00;;;;;;5091216;28;20322;-92
2022/01/31 10:44:34;;;;;;;31.13;12.57;;;3.50;1.00;;;;;;5088951;28;20223;-91
2022/01/31 10:50:50;;;;;;;80.40;37.53;;;3.50;1.00;;;;;;5097071;28;20568;-90
2022/01/31 10:53:17;;;;;;;38.77;15.93;;;3.40;1.00;;;;;;5089747;28;20225;-87
2022/01/31 10:55:54;;;;;;;28.97;8.37;;;3.40;1.00;;;;;;5093157;28;20187;-93
2022/01/31 10:58:23;;;;;;;27.73;7.93;;;3.30;1.00;;;;;;5099577;28;20181;-90
2022/01/31 11:01:14;;;;;;;26.80;8.43;;;3.30;1.00;;;;;;5093222;28;20183;-91
2022/01/31 11:03:41;;;;;;;28.37;8.83;;;3.30;1.00;;;;;;5100342;28;20737;-88
2022/01/31 11:06:19;;;;;;;28.33;8.77;;;3.30;1.00;;;;;;5082858;28;20201;-90
2022/01/31 11:08:47;;;;;;;28.10;8.80;;;3.20;1.00;;;;;;5093391;28;20217;-89
2022/01/31 11:11:17;;;;;;;26.30;8.73;;;3.20;1.00;;;;;;5100073;28;20268;-88
2022/01/31 11:13:48;;;;;;;40.40;12.93;;;3.30;1.00;;;;;;5096574;28;20202;-93
2022/01/31 11:16:15;;;;;;;57.30;17.37;;;3.20;1.00;;;;;;5087845;28;20192;-89
2022/01/31 11:19:00;;;;;;;48.93;15.10;;;3.20;1.00;;;;;;5081827;28;20197;-90
2022/01/31 11:21:31;;;;;;;38.63;12.33;;;3.20;65.90;;;;;;5070600;28;20193;-90
2022/01/31 11:24:17;;;;;;;46.73;16.00;;;3.30;99.90;;;;;;5081722;28;20557;-89
2022/01/31 11:26:50;;;;;;;52.17;17.57;;;3.30;99.90;;;;;;5081138;28;20236;-88
2022/01/31 11:29:19;;;;;;;50.53;18.40;;;3.30;99.90;;;;;;5081823;28;20259;-88
2022/01/31 11:32:09;;;;;;;38.47;15.33;;;3.30;99.90;;;;;;5089732;28;20191;-91
2022/01/31 11:34:42;;;;;;;30.70;11.63;;;3.40;99.90;;;;;;5100813;28;20593;-85
2022/01/31 11:37:10;;;;;;;33.40;12.10;;;3.40;99.90;;;;;;5103076;28;20202;-88
2022/01/31 11:42:40;;;;;;;50.60;15.53;;;3.50;96.50;;;;;;5079655;28;20294;-88
2022/01/31 11:45:18;;;;;;;51.50;15.47;;;3.50;99.90;;;;;;5082000;28;20237;-87
2022/01/31 11:47:49;;;;;;;42.97;13.33;;;3.50;73.50;;;;;;5083421;28;20246;-87
2022/01/31 11:50:18;;;;;;;41.37;13.80;;;3.50;57.50;;;;;;5084536;28;20700;-88
2022/01/31 11:52:51;;;;;;;76.30;20.90;;;3.50;90.50;;;;;;5082725;28;20219;-92
2022/01/31 11:55:35;;;;;;;56.43;16.83;;;3.50;72.90;;;;;;5082342;28;20182;-87
2022/01/31 11:58:10;;;;;;;47.40;15.33;;;3.50;99.90;;;;;;5080943;28;20202;-92
2022/01/31 12:00:48;;;;;;;53.47;17.30;;;3.60;99.90;;;;;;5086761;28;20255;-92
2022/01/31 12:03:25;;;;;;;59.33;22.63;;;3.60;99.90;;;;;;5082153;28;20226;-86
2022/01/31 12:06:10;;;;;;;70.63;29.37;;;3.70;99.90;;;;;;5085779;28;20657;-91
2022/01/31 12:09:07;;;;;;;80.20;32.23;;;3.70;99.90;;;;;;5105768;28;20224;-88
2022/01/31 12:12:01;;;;;;;58.93;24.03;;;3.80;99.90;;;;;;5074250;28;20219;-90
2022/01/31 12:14:44;;;;;;;85.30;33.93;;;3.90;99.90;;;;;;5103779;28;20198;-86
2022/01/31 12:18:06;;;;;;;82.27;34.63;;;3.90;99.90;;;;;;5103278;28;20224;-92
2022/01/31 12:23:53;;;;;;;32.57;12.53;;;4.00;99.90;;;;;;5101336;28;20274;-90
2022/01/31 12:26:44;;;;;;;69.87;25.80;;;4.00;99.90;;;;;;5104365;28;20709;-88
2022/01/31 12:29:16;;;;;;;94.10;35.87;;;4.10;99.90;;;;;;5104418;28;20240;-89
2022/01/31 12:31:54;;;;;;;69.07;29.70;;;4.10;99.90;;;;;;5100279;28;20249;-87
2022/01/31 12:34:49;;;;;;;82.03;32.07;;;4.20;99.90;;;;;;5099610;28;20594;-90
2022/01/31 12:37:40;;;;;;;33.97;10.90;;;4.20;93.00;;;;;;5090156;28;20233;-91
2022/01/31 12:40:28;;;;;;;28.83;9.70;;;4.20;95.20;;;;;;5083633;28;20240;-91
2022/01/31 12:46:20;;;;;;;61.77;21.90;;;4.20;99.90;;;;;;5082542;28;20191;-90
2022/01/31 12:49:15;;;;;;;42.73;16.63;;;4.30;52.30;;;;;;5024297;28;20200;-92
2022/01/31 12:52:20;;;;;;;64.00;24.90;;;4.30;49.20;;;;;;5084298;28;20218;-88
2022/01/31 12:55:17;;;;;;;54.07;24.33;;;4.30;35.80;;;;;;5103519;28;20198;-92
2022/01/31 12:57:53;;;;;;;90.13;32.93;;;4.30;57.80;;;;;;5101862;28;20432;-92
2022/01/31 13:00:44;;;;;;;;;;;;;;;;;;;;;
2022/01/31 13:03:27;;;;;;;28.13;9.37;;;4.50;84.20;;;;;;5081786;28;20257;-87
2022/01/31 13:05:57;;;;;;;33.20;9.00;;;4.50;10.10;;;;;;5084039;28;20244;-88
2022/01/31 13:08:35;;;;;;;28.27;7.90;;;4.50;56.10;;;;;;5101257;28;20200;-88
2022/01/31 13:11:15;;;;;;;22.20;7.40;;;4.60;72.30;;;;;;5090157;28;20215;-92
2022/01/31 13:13:48;;;;;;;29.40;8.33;;;4.60;91.90;;;;;;5086087;28;20253;-90
2022/01/31 13:16:16;;;;;;;24.43;6.97;;;4.70;99.90;;;;;;5098109;28;20210;-89
2022/01/31 13:18:44;;;;;;;23.70;6.80;;;4.80;99.90;;;;;;5085066;28;20180;-87
2022/01/31 13:21:20;;;;;;;24.77;5.43;;;4.80;99.90;;;;;;5088811;28;20192;-89
2022/01/31 13:24:00;;;;;;;19.70;4.77;;;4.90;83.60;;;;;;5094961;28;20562;-90
2022/01/31 13:26:57;;;;;;;24.83;5.23;;;4.90;45.90;;;;;;5084693;28;20249;-91
2022/01/31 13:29:36;;;;;;;15.67;4.43;;;4.90;1.00;;;;;;5080409;28;20191;-89
2022/01/31 13:32:24;;;;;;;22.40;5.10;;;5.00;1.00;;;;;;5078519;28;20254;-90
2022/01/31 13:34:54;;;;;;;23.00;5.10;;;5.00;1.00;;;;;;5077177;28;20188;-88
2022/01/31 13:37:49;;;;;;;22.77;5.07;;;5.00;1.00;;;;;;5086200;28;20261;-86
2022/01/31 13:40:25;;;;;;;15.40;3.97;;;5.10;1.00;;;;;;5084338;28;20211;-91
2022/01/31 13:43:11;;;;;;;19.77;4.80;;;5.30;1.00;;;;;;5081456;28;20600;-86
2022/01/31 13:45:46;;;;;;;19.63;5.47;;;5.40;1.00;;;;;;5079127;28;20559;-90